Terminal Aerodrome Forecast
Issued by NWS Portland, OR

Home | Current Version | Previous Version | Text Only | Print | Product List | Glossary On
Versions: 1 2 3 4 5 6 7 8 9 10 11 12 13 14 15 16 17 18 19 20 21 22 23 24 25 26 27 28 29
000
FTUS46 KPQR 262052 AAA
TAFPDX
TAF AMD
KPDX 262052Z 2621/2718 12010KT P6SM -RA SCT025 OVC050
      TEMPO 2621/2701 5SM -RA BR BKN025 OVC040
     FM270100 20005KT P6SM -SHRA SCT025 BKN040
     FM271200 19007KT P6SM -SHRA SCT035 BKN050=

USA.gov is the U.S. government's official web portal to all federal, state and local government web resources and services.